sensor_id;sensor_type;location;lat;lon;timestamp;P1;durP1;ratioP1;P2;durP2;ratioP2
80975;SDS011;70437;49.466;11.002;2023-11-19T00:01:44;2.25;;;0.70;;
80975;SDS011;70437;49.466;11.002;2023-11-19T00:04:17;1.52;;;1.15;;
80975;SDS011;70437;49.466;11.002;2023-11-19T00:06:47;0.70;;;0.70;;
80975;SDS011;70437;49.466;11.002;2023-11-19T00:09:20;0.93;;;0.80;;
80975;SDS011;70437;49.466;11.002;2023-11-19T00:11:50;2.85;;;1.45;;
80975;SDS011;70437;49.466;11.002;2023-11-19T00:14:21;1.77;;;1.05;;
80975;SDS011;70437;49.466;11.002;2023-11-19T00:16:52;0.98;;;0.65;;
80975;SDS011;70437;49.466;11.002;2023-11-19T00:19:25;1.77;;;1.50;;
80975;SDS011;70437;49.466;11.002;2023-11-19T00:21:54;1.90;;;0.95;;
80975;SDS011;70437;49.466;11.002;2023-11-19T00:24:24;2.75;;;1.23;;
80975;SDS011;70437;49.466;11.002;2023-11-19T00:26:56;1.55;;;1.00;;
80975;SDS011;70437;49.466;11.002;2023-11-19T00:29:27;1.92;;;1.00;;
80975;SDS011;70437;49.466;11.002;2023-11-19T00:31:56;0.95;;;0.90;;
80975;SDS011;70437;49.466;11.002;2023-11-19T00:34:28;1.52;;;1.10;;
80975;SDS011;70437;49.466;11.002;2023-11-19T00:37:00;0.85;;;0.80;;
80975;SDS011;70437;49.466;11.002;2023-11-19T00:39:31;0.93;;;0.80;;
80975;SDS011;70437;49.466;11.002;2023-11-19T00:42:01;1.02;;;0.90;;
80975;SDS011;70437;49.466;11.002;2023-11-19T00:44:31;1.67;;;1.23;;
80975;SDS011;70437;49.466;11.002;2023-11-19T00:47:02;1.60;;;0.95;;
80975;SDS011;70437;49.466;11.002;2023-11-19T00:49:34;1.23;;;0.93;;
80975;SDS011;70437;49.466;11.002;2023-11-19T00:52:05;1.67;;;1.45;;
80975;SDS011;70437;49.466;11.002;2023-11-19T00:54:36;1.13;;;0.95;;
80975;SDS011;70437;49.466;11.002;2023-11-19T00:57:06;1.50;;;0.88;;
80975;SDS011;70437;49.466;11.002;2023-11-19T00:59:36;2.28;;;1.27;;
80975;SDS011;70437;49.466;11.002;2023-11-19T01:02:08;1.27;;;0.90;;
80975;SDS011;70437;49.466;11.002;2023-11-19T01:04:40;1.75;;;1.25;;
80975;SDS011;70437;49.466;11.002;2023-11-19T01:07:09;2.42;;;1.38;;
80975;SDS011;70437;49.466;11.002;2023-11-19T01:09:41;2.15;;;1.35;;
80975;SDS011;70437;49.466;11.002;2023-11-19T01:12:10;1.55;;;1.13;;
80975;SDS011;70437;49.466;11.002;2023-11-19T01:14:40;1.38;;;1.05;;
80975;SDS011;70437;49.466;11.002;2023-11-19T01:17:09;1.65;;;1.00;;
80975;SDS011;70437;49.466;11.002;2023-11-19T01:19:40;1.55;;;1.00;;
80975;SDS011;70437;49.466;11.002;2023-11-19T01:22:13;1.38;;;1.00;;
80975;SDS011;70437;49.466;11.002;2023-11-19T01:24:42;1.88;;;1.20;;
80975;SDS011;70437;49.466;11.002;2023-11-19T01:27:11;1.23;;;1.08;;
80975;SDS011;70437;49.466;11.002;2023-11-19T01:29:41;1.15;;;1.05;;
80975;SDS011;70437;49.466;11.002;2023-11-19T01:32:11;1.92;;;1.05;;
80975;SDS011;70437;49.466;11.002;2023-11-19T01:34:43;1.23;;;1.00;;
80975;SDS011;70437;49.466;11.002;2023-11-19T01:37:17;1.02;;;0.85;;
80975;SDS011;70437;49.466;11.002;2023-11-19T01:39:47;0.93;;;0.85;;
80975;SDS011;70437;49.466;11.002;2023-11-19T01:42:20;1.08;;;0.98;;
80975;SDS011;70437;49.466;11.002;2023-11-19T01:44:57;1.50;;;1.00;;
80975;SDS011;70437;49.466;11.002;2023-11-19T01:47:27;0.82;;;0.77;;
80975;SDS011;70437;49.466;11.002;2023-11-19T01:50:05;0.82;;;0.60;;
80975;SDS011;70437;49.466;11.002;2023-11-19T01:52:36;1.08;;;0.93;;
80975;SDS011;70437;49.466;11.002;2023-11-19T01:55:07;1.92;;;1.20;;
80975;SDS011;70437;49.466;11.002;2023-11-19T01:57:41;1.33;;;0.90;;
80975;SDS011;70437;49.466;11.002;2023-11-19T02:00:12;2.50;;;1.17;;
80975;SDS011;70437;49.466;11.002;2023-11-19T02:02:44;1.50;;;1.10;;
80975;SDS011;70437;49.466;11.002;2023-11-19T02:05:16;2.05;;;1.23;;
80975;SDS011;70437;49.466;11.002;2023-11-19T02:07:47;1.42;;;1.00;;
80975;SDS011;70437;49.466;11.002;2023-11-19T02:10:17;1.55;;;1.05;;
80975;SDS011;70437;49.466;11.002;2023-11-19T02:12:49;2.47;;;1.05;;
80975;SDS011;70437;49.466;11.002;2023-11-19T02:15:19;1.20;;;1.00;;
80975;SDS011;70437;49.466;11.002;2023-11-19T02:20:27;1.50;;;1.08;;
80975;SDS011;70437;49.466;11.002;2023-11-19T02:22:56;1.23;;;1.13;;
80975;SDS011;70437;49.466;11.002;2023-11-19T02:25:30;1.45;;;1.27;;
80975;SDS011;70437;49.466;11.002;2023-11-19T02:28:03;1.58;;;1.02;;
80975;SDS011;70437;49.466;11.002;2023-11-19T02:30:34;2.15;;;1.55;;
80975;SDS011;70437;49.466;11.002;2023-11-19T02:33:03;1.90;;;1.17;;
80975;SDS011;70437;49.466;11.002;2023-11-19T02:35:35;1.00;;;0.95;;
80975;SDS011;70437;49.466;11.002;2023-11-19T02:38:06;1.60;;;1.27;;
80975;SDS011;70437;49.466;11.002;2023-11-19T02:40:37;2.17;;;1.50;;
80975;SDS011;70437;49.466;11.002;2023-11-19T02:43:08;1.15;;;0.90;;
80975;SDS011;70437;49.466;11.002;2023-11-19T02:45:38;1.65;;;1.10;;
80975;SDS011;70437;49.466;11.002;2023-11-19T02:48:08;1.25;;;1.15;;
80975;SDS011;70437;49.466;11.002;2023-11-19T02:50:37;1.23;;;0.98;;
80975;SDS011;70437;49.466;11.002;2023-11-19T02:53:09;1.58;;;1.30;;
80975;SDS011;70437;49.466;11.002;2023-11-19T02:55:40;1.17;;;1.02;;
80975;SDS011;70437;49.466;11.002;2023-11-19T02:58:19;1.15;;;1.00;;
80975;SDS011;70437;49.466;11.002;2023-11-19T03:00:51;2.22;;;1.23;;
80975;SDS011;70437;49.466;11.002;2023-11-19T03:03:25;1.63;;;1.15;;
80975;SDS011;70437;49.466;11.002;2023-11-19T03:06:00;4.57;;;1.70;;
80975;SDS011;70437;49.466;11.002;2023-11-19T03:08:32;1.40;;;1.10;;
80975;SDS011;70437;49.466;11.002;2023-11-19T03:11:01;1.70;;;1.40;;
80975;SDS011;70437;49.466;11.002;2023-11-19T03:13:34;4.05;;;1.60;;
80975;SDS011;70437;49.466;11.002;2023-11-19T03:16:08;2.15;;;1.48;;
80975;SDS011;70437;49.466;11.002;2023-11-19T03:18:41;2.58;;;1.55;;
80975;SDS011;70437;49.466;11.002;2023-11-19T03:21:15;2.38;;;1.35;;
80975;SDS011;70437;49.466;11.002;2023-11-19T03:23:47;3.17;;;2.05;;
80975;SDS011;70437;49.466;11.002;2023-11-19T03:26:17;1.67;;;1.35;;
80975;SDS011;70437;49.466;11.002;2023-11-19T03:28:49;2.78;;;1.75;;
80975;SDS011;70437;49.466;11.002;2023-11-19T03:31:18;1.67;;;1.38;;
80975;SDS011;70437;49.466;11.002;2023-11-19T03:33:47;1.85;;;1.40;;
80975;SDS011;70437;49.466;11.002;2023-11-19T03:36:18;2.45;;;1.80;;
80975;SDS011;70437;49.466;11.002;2023-11-19T03:38:47;2.47;;;1.52;;
80975;SDS011;70437;49.466;11.002;2023-11-19T03:41:18;2.45;;;1.85;;
80975;SDS011;70437;49.466;11.002;2023-11-19T03:43:49;2.15;;;1.30;;
80975;SDS011;70437;49.466;11.002;2023-11-19T03:46:20;2.95;;;1.38;;
80975;SDS011;70437;49.466;11.002;2023-11-19T03:48:51;2.33;;;1.52;;
80975;SDS011;70437;49.466;11.002;2023-11-19T03:51:20;1.58;;;1.38;;
80975;SDS011;70437;49.466;11.002;2023-11-19T03:53:49;2.47;;;1.80;;
80975;SDS011;70437;49.466;11.002;2023-11-19T03:56:18;2.53;;;1.80;;
80975;SDS011;70437;49.466;11.002;2023-11-19T03:58:50;2.92;;;1.67;;
80975;SDS011;70437;49.466;11.002;2023-11-19T04:01:20;4.07;;;1.80;;
80975;SDS011;70437;49.466;11.002;2023-11-19T04:03:52;3.05;;;2.33;;
80975;SDS011;70437;49.466;11.002;2023-11-19T04:06:24;2.50;;;1.65;;
80975;SDS011;70437;49.466;11.002;2023-11-19T04:08:55;2.83;;;1.85;;
80975;SDS011;70437;49.466;11.002;2023-11-19T04:11:24;2.65;;;1.80;;
80975;SDS011;70437;49.466;11.002;2023-11-19T04:14:01;7.10;;;1.60;;
80975;SDS011;70437;49.466;11.002;2023-11-19T04:16:31;4.10;;;2.03;;
80975;SDS011;70437;49.466;11.002;2023-11-19T04:19:02;2.58;;;1.70;;
80975;SDS011;70437;49.466;11.002;2023-11-19T04:21:33;2.75;;;1.77;;
80975;SDS011;70437;49.466;11.002;2023-11-19T04:24:03;2.08;;;1.40;;
80975;SDS011;70437;49.466;11.002;2023-11-19T04:26:34;3.38;;;1.80;;
80975;SDS011;70437;49.466;11.002;2023-11-19T04:29:05;3.03;;;1.85;;
80975;SDS011;70437;49.466;11.002;2023-11-19T04:31:38;2.83;;;1.65;;
80975;SDS011;70437;49.466;11.002;2023-11-19T04:34:07;3.92;;;2.17;;
80975;SDS011;70437;49.466;11.002;2023-11-19T04:36:37;3.13;;;2.05;;
80975;SDS011;70437;49.466;11.002;2023-11-19T04:39:06;3.03;;;1.75;;
80975;SDS011;70437;49.466;11.002;2023-11-19T04:41:45;2.22;;;1.60;;
80975;SDS011;70437;49.466;11.002;2023-11-19T04:44:19;4.00;;;2.30;;
80975;SDS011;70437;49.466;11.002;2023-11-19T04:46:51;2.55;;;1.88;;
80975;SDS011;70437;49.466;11.002;2023-11-19T04:49:22;3.20;;;1.90;;
80975;SDS011;70437;49.466;11.002;2023-11-19T04:51:51;2.90;;;1.90;;
80975;SDS011;70437;49.466;11.002;2023-11-19T04:54:22;2.97;;;1.73;;
80975;SDS011;70437;49.466;11.002;2023-11-19T04:56:52;2.42;;;1.83;;
80975;SDS011;70437;49.466;11.002;2023-11-19T04:59:23;4.43;;;2.42;;
80975;SDS011;70437;49.466;11.002;2023-11-19T05:01:53;3.10;;;1.95;;
80975;SDS011;70437;49.466;11.002;2023-11-19T05:04:23;2.60;;;1.98;;
80975;SDS011;70437;49.466;11.002;2023-11-19T05:06:55;3.42;;;2.10;;
80975;SDS011;70437;49.466;11.002;2023-11-19T05:09:26;5.10;;;2.17;;
80975;SDS011;70437;49.466;11.002;2023-11-19T05:11:56;2.97;;;1.88;;
80975;SDS011;70437;49.466;11.002;2023-11-19T05:14:26;3.92;;;2.17;;
80975;SDS011;70437;49.466;11.002;2023-11-19T05:16:56;4.47;;;2.10;;
80975;SDS011;70437;49.466;11.002;2023-11-19T05:19:26;3.80;;;2.05;;
80975;SDS011;70437;49.466;11.002;2023-11-19T05:21:55;2.70;;;2.08;;
80975;SDS011;70437;49.466;11.002;2023-11-19T05:24:27;2.20;;;1.50;;
80975;SDS011;70437;49.466;11.002;2023-11-19T05:26:56;2.60;;;1.80;;
80975;SDS011;70437;49.466;11.002;2023-11-19T05:29:29;2.97;;;2.15;;
80975;SDS011;70437;49.466;11.002;2023-11-19T05:31:59;2.75;;;1.85;;
80975;SDS011;70437;49.466;11.002;2023-11-19T05:34:28;3.38;;;2.00;;
80975;SDS011;70437;49.466;11.002;2023-11-19T05:36:58;3.53;;;2.28;;
80975;SDS011;70437;49.466;11.002;2023-11-19T05:39:27;2.63;;;1.83;;
80975;SDS011;70437;49.466;11.002;2023-11-19T05:41:57;1.98;;;1.55;;
80975;SDS011;70437;49.466;11.002;2023-11-19T05:44:28;5.03;;;1.77;;
80975;SDS011;70437;49.466;11.002;2023-11-19T05:46:59;3.15;;;1.95;;
80975;SDS011;70437;49.466;11.002;2023-11-19T05:49:29;2.78;;;2.38;;
80975;SDS011;70437;49.466;11.002;2023-11-19T05:51:58;2.17;;;1.85;;
80975;SDS011;70437;49.466;11.002;2023-11-19T05:54:30;3.60;;;2.35;;
80975;SDS011;70437;49.466;11.002;2023-11-19T05:57:04;3.97;;;1.92;;
80975;SDS011;70437;49.466;11.002;2023-11-19T05:59:38;3.08;;;1.67;;
80975;SDS011;70437;49.466;11.002;2023-11-19T06:02:08;2.53;;;1.60;;
80975;SDS011;70437;49.466;11.002;2023-11-19T06:04:39;11.48;;;1.73;;
80975;SDS011;70437;49.466;11.002;2023-11-19T06:07:15;3.00;;;1.85;;
80975;SDS011;70437;49.466;11.002;2023-11-19T06:09:45;3.22;;;1.90;;
80975;SDS011;70437;49.466;11.002;2023-11-19T06:12:14;3.22;;;2.03;;
80975;SDS011;70437;49.466;11.002;2023-11-19T06:14:49;2.88;;;1.40;;
80975;SDS011;70437;49.466;11.002;2023-11-19T06:19:46;2.50;;;1.58;;
80975;SDS011;70437;49.466;11.002;2023-11-19T06:22:18;3.03;;;1.92;;
80975;SDS011;70437;49.466;11.002;2023-11-19T06:24:48;2.33;;;1.77;;
80975;SDS011;70437;49.466;11.002;2023-11-19T06:27:18;3.05;;;1.42;;
80975;SDS011;70437;49.466;11.002;2023-11-19T06:32:20;1.95;;;1.40;;
80975;SDS011;70437;49.466;11.002;2023-11-19T06:34:50;3.05;;;1.67;;
80975;SDS011;70437;49.466;11.002;2023-11-19T06:37:22;2.80;;;1.50;;
80975;SDS011;70437;49.466;11.002;2023-11-19T06:39:52;2.88;;;1.98;;
80975;SDS011;70437;49.466;11.002;2023-11-19T06:42:23;3.45;;;1.63;;
80975;SDS011;70437;49.466;11.002;2023-11-19T06:44:53;2.10;;;1.67;;
80975;SDS011;70437;49.466;11.002;2023-11-19T06:47:25;2.20;;;1.58;;
80975;SDS011;70437;49.466;11.002;2023-11-19T06:49:55;2.95;;;1.85;;
80975;SDS011;70437;49.466;11.002;2023-11-19T06:52:26;3.55;;;1.63;;
80975;SDS011;70437;49.466;11.002;2023-11-19T06:54:56;2.80;;;1.50;;
80975;SDS011;70437;49.466;11.002;2023-11-19T06:57:28;1.15;;;0.77;;
80975;SDS011;70437;49.466;11.002;2023-11-19T07:00:01;2.58;;;1.17;;
80975;SDS011;70437;49.466;11.002;2023-11-19T07:02:32;1.67;;;1.10;;
80975;SDS011;70437;49.466;11.002;2023-11-19T07:05:02;3.30;;;1.20;;
80975;SDS011;70437;49.466;11.002;2023-11-19T07:07:33;1.73;;;1.10;;
80975;SDS011;70437;49.466;11.002;2023-11-19T07:10:06;1.95;;;1.00;;
80975;SDS011;70437;49.466;11.002;2023-11-19T07:12:37;2.05;;;0.70;;
80975;SDS011;70437;49.466;11.002;2023-11-19T07:15:17;1.58;;;1.02;;
80975;SDS011;70437;49.466;11.002;2023-11-19T07:17:47;0.90;;;0.77;;
80975;SDS011;70437;49.466;11.002;2023-11-19T07:20:29;0.47;;;0.40;;
80975;SDS011;70437;49.466;11.002;2023-11-19T07:23:01;1.15;;;0.80;;
80975;SDS011;70437;49.466;11.002;2023-11-19T07:25:33;0.50;;;0.50;;
80975;SDS011;70437;49.466;11.002;2023-11-19T07:28:03;0.82;;;0.40;;
80975;SDS011;70437;49.466;11.002;2023-11-19T07:30:33;0.40;;;0.40;;
80975;SDS011;70437;49.466;11.002;2023-11-19T07:33:03;5.38;;;0.50;;
80975;SDS011;70437;49.466;11.002;2023-11-19T07:35:32;0.73;;;0.55;;
80975;SDS011;70437;49.466;11.002;2023-11-19T07:38:01;0.52;;;0.43;;
80975;SDS011;70437;49.466;11.002;2023-11-19T07:40:30;0.85;;;0.57;;
80975;SDS011;70437;49.466;11.002;2023-11-19T07:42:59;0.90;;;0.60;;
80975;SDS011;70437;49.466;11.002;2023-11-19T07:45:28;0.68;;;0.40;;
80975;SDS011;70437;49.466;11.002;2023-11-19T07:47:59;1.10;;;0.68;;
80975;SDS011;70437;49.466;11.002;2023-11-19T07:50:29;0.32;;;0.32;;
80975;SDS011;70437;49.466;11.002;2023-11-19T07:52:59;0.55;;;0.40;;
80975;SDS011;70437;49.466;11.002;2023-11-19T07:55:29;1.65;;;0.50;;
80975;SDS011;70437;49.466;11.002;2023-11-19T07:58:02;0.70;;;0.65;;
80975;SDS011;70437;49.466;11.002;2023-11-19T08:00:34;1.00;;;0.80;;
80975;SDS011;70437;49.466;11.002;2023-11-19T08:03:06;0.85;;;0.60;;
80975;SDS011;70437;49.466;11.002;2023-11-19T08:05:37;0.43;;;0.43;;
80975;SDS011;70437;49.466;11.002;2023-11-19T08:08:08;0.50;;;0.50;;
80975;SDS011;70437;49.466;11.002;2023-11-19T08:10:41;0.57;;;0.57;;
80975;SDS011;70437;49.466;11.002;2023-11-19T08:13:10;0.60;;;0.57;;
80975;SDS011;70437;49.466;11.002;2023-11-19T08:15:40;0.40;;;0.40;;
80975;SDS011;70437;49.466;11.002;2023-11-19T08:18:11;2.00;;;0.70;;
80975;SDS011;70437;49.466;11.002;2023-11-19T08:20:48;2.50;;;0.70;;
80975;SDS011;70437;49.466;11.002;2023-11-19T08:23:20;1.40;;;0.73;;
80975;SDS011;70437;49.466;11.002;2023-11-19T08:25:53;1.67;;;0.73;;
80975;SDS011;70437;49.466;11.002;2023-11-19T08:28:23;0.52;;;0.45;;
80975;SDS011;70437;49.466;11.002;2023-11-19T08:30:55;0.70;;;0.70;;
80975;SDS011;70437;49.466;11.002;2023-11-19T08:33:26;0.57;;;0.57;;
80975;SDS011;70437;49.466;11.002;2023-11-19T08:35:55;1.00;;;0.88;;
80975;SDS011;70437;49.466;11.002;2023-11-19T08:38:26;1.33;;;0.82;;
80975;SDS011;70437;49.466;11.002;2023-11-19T08:40:59;1.63;;;0.93;;
80975;SDS011;70437;49.466;11.002;2023-11-19T08:43:29;1.20;;;0.85;;
80975;SDS011;70437;49.466;11.002;2023-11-19T08:46:01;5.88;;;2.88;;
80975;SDS011;70437;49.466;11.002;2023-11-19T08:48:35;1.30;;;0.77;;
80975;SDS011;70437;49.466;11.002;2023-11-19T08:51:04;1.55;;;0.57;;
80975;SDS011;70437;49.466;11.002;2023-11-19T08:53:37;2.35;;;0.85;;
80975;SDS011;70437;49.466;11.002;2023-11-19T08:56:09;2.55;;;0.90;;
80975;SDS011;70437;49.466;11.002;2023-11-19T08:58:39;1.15;;;0.90;;
80975;SDS011;70437;49.466;11.002;2023-11-19T09:01:14;1.27;;;0.70;;
80975;SDS011;70437;49.466;11.002;2023-11-19T09:03:51;1.00;;;0.90;;
80975;SDS011;70437;49.466;11.002;2023-11-19T09:08:53;0.85;;;0.60;;
80975;SDS011;70437;49.466;11.002;2023-11-19T09:11:28;0.50;;;0.47;;
80975;SDS011;70437;49.466;11.002;2023-11-19T09:13:58;0.73;;;0.57;;
80975;SDS011;70437;49.466;11.002;2023-11-19T09:16:29;3.53;;;1.70;;
80975;SDS011;70437;49.466;11.002;2023-11-19T09:19:00;1.90;;;1.13;;
80975;SDS011;70437;49.466;11.002;2023-11-19T09:21:34;0.30;;;0.30;;
80975;SDS011;70437;49.466;11.002;2023-11-19T09:24:07;1.05;;;0.52;;
80975;SDS011;70437;49.466;11.002;2023-11-19T09:26:37;0.50;;;0.50;;
80975;SDS011;70437;49.466;11.002;2023-11-19T09:29:12;0.70;;;0.70;;
80975;SDS011;70437;49.466;11.002;2023-11-19T09:31:42;0.50;;;0.50;;
80975;SDS011;70437;49.466;11.002;2023-11-19T09:34:19;1.05;;;0.60;;
80975;SDS011;70437;49.466;11.002;2023-11-19T09:36:51;0.50;;;0.50;;
80975;SDS011;70437;49.466;11.002;2023-11-19T09:39:21;0.63;;;0.63;;
80975;SDS011;70437;49.466;11.002;2023-11-19T09:41:53;2.67;;;0.90;;
80975;SDS011;70437;49.466;11.002;2023-11-19T09:44:26;5.40;;;0.90;;
80975;SDS011;70437;49.466;11.002;2023-11-19T09:46:57;1.27;;;0.60;;
80975;SDS011;70437;49.466;11.002;2023-11-19T09:49:33;1.45;;;0.90;;
80975;SDS011;70437;49.466;11.002;2023-11-19T09:52:05;1.83;;;0.70;;
80975;SDS011;70437;49.466;11.002;2023-11-19T09:54:35;0.60;;;0.60;;
80975;SDS011;70437;49.466;11.002;2023-11-19T09:57:06;1.27;;;0.90;;
80975;SDS011;70437;49.466;11.002;2023-11-19T09:59:39;0.82;;;0.80;;
80975;SDS011;70437;49.466;11.002;2023-11-19T10:02:12;0.80;;;0.80;;
80975;SDS011;70437;49.466;11.002;2023-11-19T10:04:51;0.60;;;0.60;;
80975;SDS011;70437;49.466;11.002;2023-11-19T10:07:22;2.00;;;1.15;;
80975;SDS011;70437;49.466;11.002;2023-11-19T10:09:53;4.70;;;1.75;;
80975;SDS011;70437;49.466;11.002;2023-11-19T10:12:26;0.65;;;0.63;;
80975;SDS011;70437;49.466;11.002;2023-11-19T10:14:56;1.38;;;0.90;;
80975;SDS011;70437;49.466;11.002;2023-11-19T10:17:29;4.43;;;0.90;;
80975;SDS011;70437;49.466;11.002;2023-11-19T10:20:05;2.28;;;0.43;;
80975;SDS011;70437;49.466;11.002;2023-11-19T10:22:38;1.85;;;1.00;;
80975;SDS011;70437;49.466;11.002;2023-11-19T10:25:15;0.90;;;0.50;;
80975;SDS011;70437;49.466;11.002;2023-11-19T10:27:51;0.82;;;0.60;;
80975;SDS011;70437;49.466;11.002;2023-11-19T10:30:22;2.10;;;0.75;;
80975;SDS011;70437;49.466;11.002;2023-11-19T10:33:03;1.05;;;0.70;;
80975;SDS011;70437;49.466;11.002;2023-11-19T10:38:31;1.58;;;1.00;;
80975;SDS011;70437;49.466;11.002;2023-11-19T10:41:00;1.15;;;0.73;;
80975;SDS011;70437;49.466;11.002;2023-11-19T10:43:29;0.30;;;0.30;;
80975;SDS011;70437;49.466;11.002;2023-11-19T10:46:09;3.15;;;1.15;;
80975;SDS011;70437;49.466;11.002;2023-11-19T10:48:40;1.27;;;0.80;;
80975;SDS011;70437;49.466;11.002;2023-11-19T10:51:13;0.85;;;0.60;;
80975;SDS011;70437;49.466;11.002;2023-11-19T10:53:49;1.20;;;1.00;;
80975;SDS011;70437;49.466;11.002;2023-11-19T10:56:20;0.85;;;0.70;;
80975;SDS011;70437;49.466;11.002;2023-11-19T10:58:54;0.90;;;0.50;;
80975;SDS011;70437;49.466;11.002;2023-11-19T11:01:31;0.80;;;0.80;;
80975;SDS011;70437;49.466;11.002;2023-11-19T11:04:06;0.93;;;0.60;;
80975;SDS011;70437;49.466;11.002;2023-11-19T11:06:44;1.10;;;0.85;;
80975;SDS011;70437;49.466;11.002;2023-11-19T11:09:17;0.50;;;0.50;;
80975;SDS011;70437;49.466;11.002;2023-11-19T11:14:18;1.52;;;1.08;;
80975;SDS011;70437;49.466;11.002;2023-11-19T11:16:52;0.50;;;0.50;;
80975;SDS011;70437;49.466;11.002;2023-11-19T11:19:24;1.95;;;0.80;;
80975;SDS011;70437;49.466;11.002;2023-11-19T11:21:56;2.60;;;1.08;;
80975;SDS011;70437;49.466;11.002;2023-11-19T11:24:33;1.25;;;0.70;;
80975;SDS011;70437;49.466;11.002;2023-11-19T11:27:30;1.35;;;0.75;;
80975;SDS011;70437;49.466;11.002;2023-11-19T11:30:17;2.85;;;1.75;;
80975;SDS011;70437;49.466;11.002;2023-11-19T11:33:06;1.02;;;0.60;;
80975;SDS011;70437;49.466;11.002;2023-11-19T11:35:50;1.48;;;1.08;;
80975;SDS011;70437;49.466;11.002;2023-11-19T11:38:33;0.88;;;0.70;;
80975;SDS011;70437;49.466;11.002;2023-11-19T11:41:16;2.30;;;0.90;;
80975;SDS011;70437;49.466;11.002;2023-11-19T11:43:55;1.73;;;0.70;;
80975;SDS011;70437;49.466;11.002;2023-11-19T11:49:29;1.77;;;1.15;;
80975;SDS011;70437;49.466;11.002;2023-11-19T11:52:02;1.25;;;1.00;;
80975;SDS011;70437;49.466;11.002;2023-11-19T11:54:35;4.43;;;1.35;;
80975;SDS011;70437;49.466;11.002;2023-11-19T11:57:08;2.08;;;1.20;;
80975;SDS011;70437;49.466;11.002;2023-11-19T12:02:33;2.67;;;0.90;;
80975;SDS011;70437;49.466;11.002;2023-11-19T12:05:08;0.80;;;0.70;;
80975;SDS011;70437;49.466;11.002;2023-11-19T12:07:38;0.75;;;0.70;;
80975;SDS011;70437;49.466;11.002;2023-11-19T12:10:09;0.43;;;0.40;;
80975;SDS011;70437;49.466;11.002;2023-11-19T12:12:40;1.70;;;0.80;;
80975;SDS011;70437;49.466;11.002;2023-11-19T12:15:11;3.65;;;1.23;;
80975;SDS011;70437;49.466;11.002;2023-11-19T12:17:43;1.95;;;1.17;;
80975;SDS011;70437;49.466;11.002;2023-11-19T12:20:18;1.77;;;0.90;;
80975;SDS011;70437;49.466;11.002;2023-11-19T12:22:53;0.70;;;0.70;;
80975;SDS011;70437;49.466;11.002;2023-11-19T12:25:27;1.25;;;0.90;;
80975;SDS011;70437;49.466;11.002;2023-11-19T12:28:11;1.73;;;0.80;;
80975;SDS011;70437;49.466;11.002;2023-11-19T12:30:45;1.60;;;1.05;;
80975;SDS011;70437;49.466;11.002;2023-11-19T12:33:15;1.13;;;0.88;;
80975;SDS011;70437;49.466;11.002;2023-11-19T12:35:47;2.55;;;0.90;;
80975;SDS011;70437;49.466;11.002;2023-11-19T12:38:21;1.42;;;0.85;;
80975;SDS011;70437;49.466;11.002;2023-11-19T12:41:07;1.80;;;1.00;;
80975;SDS011;70437;49.466;11.002;2023-11-19T12:43:41;3.97;;;1.10;;
80975;SDS011;70437;49.466;11.002;2023-11-19T12:46:20;1.48;;;1.05;;
80975;SDS011;70437;49.466;11.002;2023-11-19T12:48:51;1.05;;;0.90;;
80975;SDS011;70437;49.466;11.002;2023-11-19T12:51:21;2.42;;;0.90;;
80975;SDS011;70437;49.466;11.002;2023-11-19T12:53:50;1.42;;;0.93;;
80975;SDS011;70437;49.466;11.002;2023-11-19T12:56:23;1.67;;;0.73;;
80975;SDS011;70437;49.466;11.002;2023-11-19T12:58:54;1.80;;;1.10;;
80975;SDS011;70437;49.466;11.002;2023-11-19T13:01:23;1.58;;;0.82;;
80975;SDS011;70437;49.466;11.002;2023-11-19T13:03:55;1.25;;;0.60;;
80975;SDS011;70437;49.466;11.002;2023-11-19T13:06:24;0.55;;;0.55;;
80975;SDS011;70437;49.466;11.002;2023-11-19T13:08:54;3.17;;;1.00;;
80975;SDS011;70437;49.466;11.002;2023-11-19T13:11:32;1.10;;;0.70;;
80975;SDS011;70437;49.466;11.002;2023-11-19T13:14:11;1.83;;;0.80;;
80975;SDS011;70437;49.466;11.002;2023-11-19T13:16:41;3.80;;;1.55;;
80975;SDS011;70437;49.466;11.002;2023-11-19T13:19:10;2.67;;;1.15;;
80975;SDS011;70437;49.466;11.002;2023-11-19T13:21:41;1.00;;;0.70;;
80975;SDS011;70437;49.466;11.002;2023-11-19T13:24:12;0.90;;;0.70;;
80975;SDS011;70437;49.466;11.002;2023-11-19T13:26:43;1.70;;;0.88;;
80975;SDS011;70437;49.466;11.002;2023-11-19T13:29:14;1.58;;;0.75;;
80975;SDS011;70437;49.466;11.002;2023-11-19T13:31:44;1.67;;;0.82;;
80975;SDS011;70437;49.466;11.002;2023-11-19T13:34:14;0.50;;;0.50;;
80975;SDS011;70437;49.466;11.002;2023-11-19T13:36:46;1.05;;;0.80;;
80975;SDS011;70437;49.466;11.002;2023-11-19T13:39:15;1.27;;;0.80;;
80975;SDS011;70437;49.466;11.002;2023-11-19T13:41:51;1.75;;;0.73;;
80975;SDS011;70437;49.466;11.002;2023-11-19T13:44:39;1.10;;;0.82;;
80975;SDS011;70437;49.466;11.002;2023-11-19T13:47:10;0.80;;;0.70;;
80975;SDS011;70437;49.466;11.002;2023-11-19T13:49:41;2.72;;;0.85;;
80975;SDS011;70437;49.466;11.002;2023-11-19T13:52:14;1.33;;;0.68;;
80975;SDS011;70437;49.466;11.002;2023-11-19T13:54:43;2.20;;;1.08;;
80975;SDS011;70437;49.466;11.002;2023-11-19T13:57:14;0.75;;;0.73;;
80975;SDS011;70437;49.466;11.002;2023-11-19T13:59:46;1.25;;;1.15;;
80975;SDS011;70437;49.466;11.002;2023-11-19T14:02:15;1.08;;;0.70;;
80975;SDS011;70437;49.466;11.002;2023-11-19T14:04:46;0.75;;;0.70;;
80975;SDS011;70437;49.466;11.002;2023-11-19T14:07:15;2.45;;;0.70;;
80975;SDS011;70437;49.466;11.002;2023-11-19T14:09:45;1.88;;;0.90;;
80975;SDS011;70437;49.466;11.002;2023-11-19T14:12:17;1.35;;;0.80;;
80975;SDS011;70437;49.466;11.002;2023-11-19T14:14:46;1.00;;;0.70;;
80975;SDS011;70437;49.466;11.002;2023-11-19T14:17:17;2.85;;;1.08;;
80975;SDS011;70437;49.466;11.002;2023-11-19T14:19:47;2.15;;;1.00;;
80975;SDS011;70437;49.466;11.002;2023-11-19T14:22:18;2.20;;;1.20;;
80975;SDS011;70437;49.466;11.002;2023-11-19T14:24:50;1.77;;;1.10;;
80975;SDS011;70437;49.466;11.002;2023-11-19T14:27:25;6.15;;;0.93;;
80975;SDS011;70437;49.466;11.002;2023-11-19T14:29:57;3.38;;;1.20;;
80975;SDS011;70437;49.466;11.002;2023-11-19T14:32:27;1.13;;;0.77;;
80975;SDS011;70437;49.466;11.002;2023-11-19T14:34:59;2.35;;;1.05;;
80975;SDS011;70437;49.466;11.002;2023-11-19T14:37:29;1.17;;;0.73;;
80975;SDS011;70437;49.466;11.002;2023-11-19T14:40:00;1.55;;;0.90;;
80975;SDS011;70437;49.466;11.002;2023-11-19T14:42:33;2.38;;;0.82;;
80975;SDS011;70437;49.466;11.002;2023-11-19T14:45:03;2.92;;;0.73;;
80975;SDS011;70437;49.466;11.002;2023-11-19T14:47:35;0.77;;;0.70;;
80975;SDS011;70437;49.466;11.002;2023-11-19T14:50:08;1.48;;;0.80;;
80975;SDS011;70437;49.466;11.002;2023-11-19T14:52:37;1.65;;;1.17;;
80975;SDS011;70437;49.466;11.002;2023-11-19T14:55:09;1.27;;;0.77;;
80975;SDS011;70437;49.466;11.002;2023-11-19T14:57:40;1.83;;;0.63;;
80975;SDS011;70437;49.466;11.002;2023-11-19T15:00:24;0.95;;;0.63;;
80975;SDS011;70437;49.466;11.002;2023-11-19T15:02:53;1.05;;;0.80;;
80975;SDS011;70437;49.466;11.002;2023-11-19T15:05:31;1.95;;;0.70;;
80975;SDS011;70437;49.466;11.002;2023-11-19T15:08:04;1.05;;;0.80;;
80975;SDS011;70437;49.466;11.002;2023-11-19T15:10:35;2.65;;;0.95;;
80975;SDS011;70437;49.466;11.002;2023-11-19T15:13:06;1.58;;;0.50;;
80975;SDS011;70437;49.466;11.002;2023-11-19T15:18:08;2.92;;;0.70;;
80975;SDS011;70437;49.466;11.002;2023-11-19T15:20:37;1.10;;;1.00;;
80975;SDS011;70437;49.466;11.002;2023-11-19T15:23:08;3.53;;;1.42;;
80975;SDS011;70437;49.466;11.002;2023-11-19T15:25:43;0.93;;;0.75;;